sensor_id;sensor_type;location;lat;lon;timestamp;P1;durP1;ratioP1;P2;durP2;ratioP2
34236;SDS011;20501;45.956;13.632;2024-03-06T00:01:42;27.30;;;8.90;;
34236;SDS011;20501;45.956;13.632;2024-03-06T00:04:07;28.25;;;8.60;;
34236;SDS011;20501;45.956;13.632;2024-03-06T00:06:33;33.85;;;8.75;;
34236;SDS011;20501;45.956;13.632;2024-03-06T00:08:58;23.10;;;8.63;;
34236;SDS011;20501;45.956;13.632;2024-03-06T00:11:24;23.63;;;9.30;;
34236;SDS011;20501;45.956;13.632;2024-03-06T00:13:49;24.15;;;8.57;;
34236;SDS011;20501;45.956;13.632;2024-03-06T00:16:15;23.00;;;8.43;;
34236;SDS011;20501;45.956;13.632;2024-03-06T00:18:41;27.35;;;8.70;;
34236;SDS011;20501;45.956;13.632;2024-03-06T00:21:07;26.40;;;9.60;;
34236;SDS011;20501;45.956;13.632;2024-03-06T00:23:32;24.30;;;10.20;;
34236;SDS011;20501;45.956;13.632;2024-03-06T00:25:58;28.95;;;9.55;;
34236;SDS011;20501;45.956;13.632;2024-03-06T00:28:23;26.17;;;9.55;;
34236;SDS011;20501;45.956;13.632;2024-03-06T00:30:49;21.63;;;8.85;;
34236;SDS011;20501;45.956;13.632;2024-03-06T00:33:15;17.95;;;8.80;;
34236;SDS011;20501;45.956;13.632;2024-03-06T00:35:40;18.02;;;8.23;;
34236;SDS011;20501;45.956;13.632;2024-03-06T00:38:05;24.25;;;8.45;;
34236;SDS011;20501;45.956;13.632;2024-03-06T00:40:31;17.63;;;8.15;;
34236;SDS011;20501;45.956;13.632;2024-03-06T00:42:57;20.00;;;8.30;;
34236;SDS011;20501;45.956;13.632;2024-03-06T00:45:23;25.92;;;8.80;;
34236;SDS011;20501;45.956;13.632;2024-03-06T00:47:48;27.33;;;7.80;;
34236;SDS011;20501;45.956;13.632;2024-03-06T00:50:14;19.80;;;7.53;;
34236;SDS011;20501;45.956;13.632;2024-03-06T00:55:07;21.13;;;8.55;;
34236;SDS011;20501;45.956;13.632;2024-03-06T00:57:33;25.13;;;8.88;;
34236;SDS011;20501;45.956;13.632;2024-03-06T00:59:59;19.25;;;8.48;;
34236;SDS011;20501;45.956;13.632;2024-03-06T01:02:25;18.65;;;7.80;;
34236;SDS011;20501;45.956;13.632;2024-03-06T01:04:50;13.40;;;7.10;;
34236;SDS011;20501;45.956;13.632;2024-03-06T01:07:15;24.23;;;8.60;;
34236;SDS011;20501;45.956;13.632;2024-03-06T01:09:41;15.35;;;6.95;;
34236;SDS011;20501;45.956;13.632;2024-03-06T01:12:06;19.80;;;7.80;;
34236;SDS011;20501;45.956;13.632;2024-03-06T01:14:32;24.65;;;8.38;;
34236;SDS011;20501;45.956;13.632;2024-03-06T01:16:57;19.58;;;7.10;;
34236;SDS011;20501;45.956;13.632;2024-03-06T01:19:23;29.00;;;11.32;;
34236;SDS011;20501;45.956;13.632;2024-03-06T01:21:48;25.10;;;10.07;;
34236;SDS011;20501;45.956;13.632;2024-03-06T01:24:14;17.75;;;9.13;;
34236;SDS011;20501;45.956;13.632;2024-03-06T01:26:39;22.55;;;9.32;;
34236;SDS011;20501;45.956;13.632;2024-03-06T01:29:08;28.98;;;12.38;;
34236;SDS011;20501;45.956;13.632;2024-03-06T01:31:33;26.25;;;9.30;;
34236;SDS011;20501;45.956;13.632;2024-03-06T01:33:58;24.52;;;9.23;;
34236;SDS011;20501;45.956;13.632;2024-03-06T01:36:24;24.15;;;9.80;;
34236;SDS011;20501;45.956;13.632;2024-03-06T01:38:49;18.48;;;7.82;;
34236;SDS011;20501;45.956;13.632;2024-03-06T01:41:15;18.75;;;8.85;;
34236;SDS011;20501;45.956;13.632;2024-03-06T01:43:40;24.25;;;9.27;;
34236;SDS011;20501;45.956;13.632;2024-03-06T01:46:06;25.83;;;8.18;;
34236;SDS011;20501;45.956;13.632;2024-03-06T01:48:32;23.57;;;7.50;;
34236;SDS011;20501;45.956;13.632;2024-03-06T01:50:59;26.10;;;9.45;;
34236;SDS011;20501;45.956;13.632;2024-03-06T01:53:27;18.08;;;7.88;;
34236;SDS011;20501;45.956;13.632;2024-03-06T01:55:55;22.75;;;7.68;;
34236;SDS011;20501;45.956;13.632;2024-03-06T01:58:21;21.08;;;7.32;;
34236;SDS011;20501;45.956;13.632;2024-03-06T02:00:49;19.15;;;6.57;;
34236;SDS011;20501;45.956;13.632;2024-03-06T02:03:15;17.00;;;6.85;;
34236;SDS011;20501;45.956;13.632;2024-03-06T02:05:41;12.15;;;5.88;;
34236;SDS011;20501;45.956;13.632;2024-03-06T02:08:07;15.30;;;5.75;;
34236;SDS011;20501;45.956;13.632;2024-03-06T02:10:33;18.17;;;7.50;;
34236;SDS011;20501;45.956;13.632;2024-03-06T02:12:59;17.30;;;6.78;;
34236;SDS011;20501;45.956;13.632;2024-03-06T02:15:25;15.02;;;6.43;;
34236;SDS011;20501;45.956;13.632;2024-03-06T02:17:50;20.08;;;6.80;;
34236;SDS011;20501;45.956;13.632;2024-03-06T02:20:20;16.08;;;6.55;;
34236;SDS011;20501;45.956;13.632;2024-03-06T02:22:47;15.90;;;6.88;;
34236;SDS011;20501;45.956;13.632;2024-03-06T02:25:13;13.07;;;7.00;;
34236;SDS011;20501;45.956;13.632;2024-03-06T02:30:05;26.50;;;7.30;;
34236;SDS011;20501;45.956;13.632;2024-03-06T02:32:31;15.55;;;7.63;;
34236;SDS011;20501;45.956;13.632;2024-03-06T02:34:57;18.77;;;7.43;;
34236;SDS011;20501;45.956;13.632;2024-03-06T02:37:22;15.70;;;8.05;;
34236;SDS011;20501;45.956;13.632;2024-03-06T02:39:49;17.38;;;7.90;;
34236;SDS011;20501;45.956;13.632;2024-03-06T02:42:15;18.13;;;8.23;;
34236;SDS011;20501;45.956;13.632;2024-03-06T02:44:42;14.43;;;7.55;;
34236;SDS011;20501;45.956;13.632;2024-03-06T02:47:07;11.55;;;7.30;;
34236;SDS011;20501;45.956;13.632;2024-03-06T02:49:33;14.63;;;8.00;;
34236;SDS011;20501;45.956;13.632;2024-03-06T02:51:59;20.27;;;9.10;;
34236;SDS011;20501;45.956;13.632;2024-03-06T02:54:26;15.68;;;7.75;;
34236;SDS011;20501;45.956;13.632;2024-03-06T02:56:51;19.05;;;9.98;;
34236;SDS011;20501;45.956;13.632;2024-03-06T02:59:17;20.37;;;9.17;;
34236;SDS011;20501;45.956;13.632;2024-03-06T03:01:43;22.75;;;9.07;;
34236;SDS011;20501;45.956;13.632;2024-03-06T03:04:09;17.23;;;9.05;;
34236;SDS011;20501;45.956;13.632;2024-03-06T03:06:35;23.13;;;9.02;;
34236;SDS011;20501;45.956;13.632;2024-03-06T03:09:01;18.50;;;9.70;;
34236;SDS011;20501;45.956;13.632;2024-03-06T03:11:28;22.33;;;9.57;;
34236;SDS011;20501;45.956;13.632;2024-03-06T03:13:55;17.90;;;9.70;;
34236;SDS011;20501;45.956;13.632;2024-03-06T03:16:20;20.42;;;9.65;;
34236;SDS011;20501;45.956;13.632;2024-03-06T03:18:46;18.50;;;10.88;;
34236;SDS011;20501;45.956;13.632;2024-03-06T03:21:13;19.90;;;9.85;;
34236;SDS011;20501;45.956;13.632;2024-03-06T03:23:39;19.27;;;10.50;;
34236;SDS011;20501;45.956;13.632;2024-03-06T03:26:08;19.38;;;10.85;;
34236;SDS011;20501;45.956;13.632;2024-03-06T03:28:37;23.00;;;10.57;;
34236;SDS011;20501;45.956;13.632;2024-03-06T03:31:06;20.80;;;10.13;;
34236;SDS011;20501;45.956;13.632;2024-03-06T03:33:34;17.63;;;10.05;;
34236;SDS011;20501;45.956;13.632;2024-03-06T03:36:03;18.73;;;10.45;;
34236;SDS011;20501;45.956;13.632;2024-03-06T03:38:29;22.88;;;11.52;;
34236;SDS011;20501;45.956;13.632;2024-03-06T03:40:55;22.77;;;11.27;;
34236;SDS011;20501;45.956;13.632;2024-03-06T03:43:20;20.83;;;10.18;;
34236;SDS011;20501;45.956;13.632;2024-03-06T03:45:46;18.98;;;9.85;;
34236;SDS011;20501;45.956;13.632;2024-03-06T03:48:11;27.85;;;10.75;;
34236;SDS011;20501;45.956;13.632;2024-03-06T03:50:37;17.83;;;10.32;;
34236;SDS011;20501;45.956;13.632;2024-03-06T03:53:02;20.23;;;10.82;;
34236;SDS011;20501;45.956;13.632;2024-03-06T03:55:29;20.23;;;10.93;;
34236;SDS011;20501;45.956;13.632;2024-03-06T03:57:54;19.23;;;10.70;;
34236;SDS011;20501;45.956;13.632;2024-03-06T04:00:20;21.70;;;10.48;;
34236;SDS011;20501;45.956;13.632;2024-03-06T04:02:45;18.92;;;11.20;;
34236;SDS011;20501;45.956;13.632;2024-03-06T04:05:11;23.40;;;11.20;;
34236;SDS011;20501;45.956;13.632;2024-03-06T04:07:36;19.15;;;11.10;;
34236;SDS011;20501;45.956;13.632;2024-03-06T04:10:03;19.85;;;10.98;;
34236;SDS011;20501;45.956;13.632;2024-03-06T04:12:29;19.50;;;10.52;;
34236;SDS011;20501;45.956;13.632;2024-03-06T04:14:54;20.77;;;11.40;;
34236;SDS011;20501;45.956;13.632;2024-03-06T04:17:19;28.65;;;11.02;;
34236;SDS011;20501;45.956;13.632;2024-03-06T04:19:45;25.08;;;11.90;;
34236;SDS011;20501;45.956;13.632;2024-03-06T04:22:13;21.63;;;10.75;;
34236;SDS011;20501;45.956;13.632;2024-03-06T04:24:40;26.08;;;12.30;;
34236;SDS011;20501;45.956;13.632;2024-03-06T04:27:07;20.77;;;10.85;;
34236;SDS011;20501;45.956;13.632;2024-03-06T04:29:33;27.40;;;12.38;;
34236;SDS011;20501;45.956;13.632;2024-03-06T04:31:58;20.30;;;11.18;;
34236;SDS011;20501;45.956;13.632;2024-03-06T04:34:24;27.00;;;12.98;;
34236;SDS011;20501;45.956;13.632;2024-03-06T04:36:49;19.48;;;12.18;;
34236;SDS011;20501;45.956;13.632;2024-03-06T04:39:15;25.30;;;11.40;;
34236;SDS011;20501;45.956;13.632;2024-03-06T04:41:40;21.42;;;12.18;;
34236;SDS011;20501;45.956;13.632;2024-03-06T04:44:06;21.77;;;12.52;;
34236;SDS011;20501;45.956;13.632;2024-03-06T04:46:31;28.77;;;13.40;;
34236;SDS011;20501;45.956;13.632;2024-03-06T04:48:57;27.15;;;13.25;;
34236;SDS011;20501;45.956;13.632;2024-03-06T04:51:22;24.88;;;13.10;;
34236;SDS011;20501;45.956;13.632;2024-03-06T04:53:48;26.65;;;12.15;;
34236;SDS011;20501;45.956;13.632;2024-03-06T04:56:13;25.83;;;11.90;;
34236;SDS011;20501;45.956;13.632;2024-03-06T04:58:40;25.20;;;12.93;;
34236;SDS011;20501;45.956;13.632;2024-03-06T05:01:06;27.15;;;12.65;;
34236;SDS011;20501;45.956;13.632;2024-03-06T05:03:31;22.02;;;13.07;;
34236;SDS011;20501;45.956;13.632;2024-03-06T05:05:57;23.27;;;12.70;;
34236;SDS011;20501;45.956;13.632;2024-03-06T05:08:23;22.83;;;11.85;;
34236;SDS011;20501;45.956;13.632;2024-03-06T05:10:48;21.67;;;12.15;;
34236;SDS011;20501;45.956;13.632;2024-03-06T05:13:14;19.95;;;12.10;;
34236;SDS011;20501;45.956;13.632;2024-03-06T05:15:40;24.83;;;13.23;;
34236;SDS011;20501;45.956;13.632;2024-03-06T05:18:05;17.75;;;12.30;;
34236;SDS011;20501;45.956;13.632;2024-03-06T05:20:31;23.42;;;12.00;;
34236;SDS011;20501;45.956;13.632;2024-03-06T05:22:56;25.20;;;12.95;;
34236;SDS011;20501;45.956;13.632;2024-03-06T05:25:22;29.63;;;13.25;;
34236;SDS011;20501;45.956;13.632;2024-03-06T05:27:47;31.83;;;14.68;;
34236;SDS011;20501;45.956;13.632;2024-03-06T05:30:13;26.00;;;13.55;;
34236;SDS011;20501;45.956;13.632;2024-03-06T05:32:39;30.45;;;13.90;;
34236;SDS011;20501;45.956;13.632;2024-03-06T05:35:06;32.53;;;16.02;;
34236;SDS011;20501;45.956;13.632;2024-03-06T05:37:34;33.55;;;15.90;;
34236;SDS011;20501;45.956;13.632;2024-03-06T05:40:00;28.77;;;16.13;;
34236;SDS011;20501;45.956;13.632;2024-03-06T05:42:25;27.05;;;15.30;;
34236;SDS011;20501;45.956;13.632;2024-03-06T05:44:51;27.80;;;16.30;;
34236;SDS011;20501;45.956;13.632;2024-03-06T05:47:19;32.42;;;16.02;;
34236;SDS011;20501;45.956;13.632;2024-03-06T05:49:45;42.20;;;19.60;;
34236;SDS011;20501;45.956;13.632;2024-03-06T05:52:10;36.15;;;17.17;;
34236;SDS011;20501;45.956;13.632;2024-03-06T05:54:36;29.02;;;16.92;;
34236;SDS011;20501;45.956;13.632;2024-03-06T05:57:02;26.33;;;16.08;;
34236;SDS011;20501;45.956;13.632;2024-03-06T05:59:28;43.47;;;20.77;;
34236;SDS011;20501;45.956;13.632;2024-03-06T06:01:54;30.75;;;16.45;;
34236;SDS011;20501;45.956;13.632;2024-03-06T06:04:20;33.17;;;16.67;;
34236;SDS011;20501;45.956;13.632;2024-03-06T06:06:45;29.92;;;15.82;;
34236;SDS011;20501;45.956;13.632;2024-03-06T06:09:10;46.25;;;17.25;;
34236;SDS011;20501;45.956;13.632;2024-03-06T06:11:43;39.03;;;18.92;;
34236;SDS011;20501;45.956;13.632;2024-03-06T06:14:10;36.83;;;17.85;;
34236;SDS011;20501;45.956;13.632;2024-03-06T06:16:36;37.58;;;17.83;;
34236;SDS011;20501;45.956;13.632;2024-03-06T06:19:03;50.50;;;27.38;;
34236;SDS011;20501;45.956;13.632;2024-03-06T06:21:29;34.05;;;17.73;;
34236;SDS011;20501;45.956;13.632;2024-03-06T06:23:55;40.83;;;18.60;;
34236;SDS011;20501;45.956;13.632;2024-03-06T06:26:21;39.53;;;17.50;;
34236;SDS011;20501;45.956;13.632;2024-03-06T06:28:46;34.58;;;17.38;;
34236;SDS011;20501;45.956;13.632;2024-03-06T06:31:12;28.98;;;16.15;;
34236;SDS011;20501;45.956;13.632;2024-03-06T06:33:37;34.97;;;16.17;;
34236;SDS011;20501;45.956;13.632;2024-03-06T06:36:03;43.60;;;17.50;;
34236;SDS011;20501;45.956;13.632;2024-03-06T06:38:28;33.65;;;18.63;;
34236;SDS011;20501;45.956;13.632;2024-03-06T06:40:54;35.83;;;16.52;;
34236;SDS011;20501;45.956;13.632;2024-03-06T06:43:20;37.67;;;17.42;;
34236;SDS011;20501;45.956;13.632;2024-03-06T06:45:46;32.50;;;17.15;;
34236;SDS011;20501;45.956;13.632;2024-03-06T06:48:11;36.17;;;18.73;;
34236;SDS011;20501;45.956;13.632;2024-03-06T06:50:37;35.23;;;18.47;;
34236;SDS011;20501;45.956;13.632;2024-03-06T06:53:03;38.53;;;19.13;;
34236;SDS011;20501;45.956;13.632;2024-03-06T06:55:29;41.38;;;17.88;;
34236;SDS011;20501;45.956;13.632;2024-03-06T06:57:55;34.70;;;18.65;;
34236;SDS011;20501;45.956;13.632;2024-03-06T07:00:20;33.03;;;16.67;;
34236;SDS011;20501;45.956;13.632;2024-03-06T07:02:47;33.90;;;16.38;;
34236;SDS011;20501;45.956;13.632;2024-03-06T07:05:13;27.15;;;14.68;;
34236;SDS011;20501;45.956;13.632;2024-03-06T07:07:40;25.23;;;15.30;;
34236;SDS011;20501;45.956;13.632;2024-03-06T07:10:05;31.88;;;15.80;;
34236;SDS011;20501;45.956;13.632;2024-03-06T07:12:31;29.83;;;16.27;;
34236;SDS011;20501;45.956;13.632;2024-03-06T07:14:57;31.17;;;15.98;;
34236;SDS011;20501;45.956;13.632;2024-03-06T07:17:23;32.65;;;16.13;;
34236;SDS011;20501;45.956;13.632;2024-03-06T07:19:48;28.98;;;17.35;;
34236;SDS011;20501;45.956;13.632;2024-03-06T07:22:15;32.78;;;18.20;;
34236;SDS011;20501;45.956;13.632;2024-03-06T07:24:41;31.98;;;16.67;;
34236;SDS011;20501;45.956;13.632;2024-03-06T07:27:06;24.45;;;13.40;;
34236;SDS011;20501;45.956;13.632;2024-03-06T07:32:00;25.80;;;12.70;;
34236;SDS011;20501;45.956;13.632;2024-03-06T07:34:25;19.67;;;11.48;;
34236;SDS011;20501;45.956;13.632;2024-03-06T07:36:51;25.60;;;14.35;;
34236;SDS011;20501;45.956;13.632;2024-03-06T07:39:16;29.05;;;14.73;;
34236;SDS011;20501;45.956;13.632;2024-03-06T07:41:44;21.83;;;12.23;;
34236;SDS011;20501;45.956;13.632;2024-03-06T07:44:09;19.65;;;11.65;;
34236;SDS011;20501;45.956;13.632;2024-03-06T07:46:35;23.40;;;12.20;;
34236;SDS011;20501;45.956;13.632;2024-03-06T07:49:00;17.33;;;11.73;;
34236;SDS011;20501;45.956;13.632;2024-03-06T07:51:28;14.57;;;8.23;;
34236;SDS011;20501;45.956;13.632;2024-03-06T07:56:20;8.10;;;4.47;;
34236;SDS011;20501;45.956;13.632;2024-03-06T07:58:45;7.35;;;4.80;;
34236;SDS011;20501;45.956;13.632;2024-03-06T08:01:11;7.30;;;4.30;;
34236;SDS011;20501;45.956;13.632;2024-03-06T08:03:38;10.13;;;4.95;;
34236;SDS011;20501;45.956;13.632;2024-03-06T08:06:05;8.85;;;5.28;;
34236;SDS011;20501;45.956;13.632;2024-03-06T08:08:30;10.15;;;6.68;;
34236;SDS011;20501;45.956;13.632;2024-03-06T08:10:56;11.50;;;7.38;;
34236;SDS011;20501;45.956;13.632;2024-03-06T08:13:22;13.67;;;7.17;;
34236;SDS011;20501;45.956;13.632;2024-03-06T08:15:47;12.75;;;7.82;;
34236;SDS011;20501;45.956;13.632;2024-03-06T08:18:13;17.17;;;9.40;;
34236;SDS011;20501;45.956;13.632;2024-03-06T08:20:40;17.58;;;8.10;;
34236;SDS011;20501;45.956;13.632;2024-03-06T08:23:06;14.57;;;9.32;;
34236;SDS011;20501;45.956;13.632;2024-03-06T08:25:32;15.40;;;8.88;;
34236;SDS011;20501;45.956;13.632;2024-03-06T08:27:57;18.73;;;9.75;;
34236;SDS011;20501;45.956;13.632;2024-03-06T08:30:24;16.05;;;9.27;;
34236;SDS011;20501;45.956;13.632;2024-03-06T08:32:50;28.17;;;15.32;;
34236;SDS011;20501;45.956;13.632;2024-03-06T08:35:16;19.03;;;10.37;;
34236;SDS011;20501;45.956;13.632;2024-03-06T08:37:43;23.98;;;11.50;;
34236;SDS011;20501;45.956;13.632;2024-03-06T08:40:09;17.65;;;9.63;;
34236;SDS011;20501;45.956;13.632;2024-03-06T08:42:39;11.85;;;8.00;;
34236;SDS011;20501;45.956;13.632;2024-03-06T08:45:06;14.65;;;8.32;;
34236;SDS011;20501;45.956;13.632;2024-03-06T08:47:33;15.18;;;7.93;;
34236;SDS011;20501;45.956;13.632;2024-03-06T08:49:59;13.80;;;8.10;;
34236;SDS011;20501;45.956;13.632;2024-03-06T08:52:24;19.63;;;9.50;;
34236;SDS011;20501;45.956;13.632;2024-03-06T08:54:49;12.70;;;7.75;;
34236;SDS011;20501;45.956;13.632;2024-03-06T08:57:15;15.13;;;7.63;;
34236;SDS011;20501;45.956;13.632;2024-03-06T08:59:41;20.73;;;7.88;;
34236;SDS011;20501;45.956;13.632;2024-03-06T09:02:14;26.50;;;12.82;;
34236;SDS011;20501;45.956;13.632;2024-03-06T09:04:41;28.45;;;15.55;;
34236;SDS011;20501;45.956;13.632;2024-03-06T09:07:07;15.43;;;9.43;;
34236;SDS011;20501;45.956;13.632;2024-03-06T09:09:33;12.23;;;7.75;;
34236;SDS011;20501;45.956;13.632;2024-03-06T09:12:08;13.50;;;8.73;;
34236;SDS011;20501;45.956;13.632;2024-03-06T09:14:36;13.48;;;7.97;;
34236;SDS011;20501;45.956;13.632;2024-03-06T09:17:02;15.82;;;7.95;;
34236;SDS011;20501;45.956;13.632;2024-03-06T09:19:28;24.48;;;8.15;;
34236;SDS011;20501;45.956;13.632;2024-03-06T09:21:54;24.17;;;8.55;;
34236;SDS011;20501;45.956;13.632;2024-03-06T09:24:21;15.73;;;6.05;;
34236;SDS011;20501;45.956;13.632;2024-03-06T09:26:48;10.82;;;3.88;;
34236;SDS011;20501;45.956;13.632;2024-03-06T09:29:14;4.95;;;3.00;;
34236;SDS011;20501;45.956;13.632;2024-03-06T09:31:40;5.88;;;2.90;;
34236;SDS011;20501;45.956;13.632;2024-03-06T09:34:06;5.03;;;2.73;;
34236;SDS011;20501;45.956;13.632;2024-03-06T09:36:31;4.43;;;2.70;;
34236;SDS011;20501;45.956;13.632;2024-03-06T09:38:58;20.90;;;10.10;;
34236;SDS011;20501;45.956;13.632;2024-03-06T09:41:24;11.85;;;6.15;;
34236;SDS011;20501;45.956;13.632;2024-03-06T09:43:49;8.68;;;5.13;;
34236;SDS011;20501;45.956;13.632;2024-03-06T09:46:15;11.38;;;7.03;;
34236;SDS011;20501;45.956;13.632;2024-03-06T09:48:48;9.23;;;5.38;;
34236;SDS011;20501;45.956;13.632;2024-03-06T09:51:16;9.75;;;5.50;;
34236;SDS011;20501;45.956;13.632;2024-03-06T09:53:42;10.50;;;5.75;;
34236;SDS011;20501;45.956;13.632;2024-03-06T09:56:10;5.93;;;4.10;;
34236;SDS011;20501;45.956;13.632;2024-03-06T09:58:36;11.02;;;5.03;;
34236;SDS011;20501;45.956;13.632;2024-03-06T10:01:01;5.60;;;3.72;;
34236;SDS011;20501;45.956;13.632;2024-03-06T10:03:29;6.97;;;3.80;;
34236;SDS011;20501;45.956;13.632;2024-03-06T10:05:55;7.13;;;4.10;;
34236;SDS011;20501;45.956;13.632;2024-03-06T10:08:21;6.10;;;3.22;;
34236;SDS011;20501;45.956;13.632;2024-03-06T10:10:50;6.97;;;2.92;;
34236;SDS011;20501;45.956;13.632;2024-03-06T10:13:16;4.30;;;2.63;;
34236;SDS011;20501;45.956;13.632;2024-03-06T10:15:42;3.30;;;2.05;;
34236;SDS011;20501;45.956;13.632;2024-03-06T10:18:20;3.90;;;2.10;;
34236;SDS011;20501;45.956;13.632;2024-03-06T10:20:45;3.67;;;2.20;;
34236;SDS011;20501;45.956;13.632;2024-03-06T10:23:11;4.60;;;2.42;;
34236;SDS011;20501;45.956;13.632;2024-03-06T10:25:37;3.72;;;1.60;;
34236;SDS011;20501;45.956;13.632;2024-03-06T10:30:28;1.45;;;1.25;;
34236;SDS011;20501;45.956;13.632;2024-03-06T10:32:53;3.63;;;1.88;;
34236;SDS011;20501;45.956;13.632;2024-03-06T10:35:19;3.60;;;1.45;;
34236;SDS011;20501;45.956;13.632;2024-03-06T10:37:46;4.20;;;1.30;;
34236;SDS011;20501;45.956;13.632;2024-03-06T10:40:13;1.90;;;1.52;;
34236;SDS011;20501;45.956;13.632;2024-03-06T10:42:40;1.80;;;1.30;;
34236;SDS011;20501;45.956;13.632;2024-03-06T10:45:07;1.73;;;1.35;;
34236;SDS011;20501;45.956;13.632;2024-03-06T10:47:37;2.08;;;1.50;;
34236;SDS011;20501;45.956;13.632;2024-03-06T10:50:05;1.63;;;1.25;;
34236;SDS011;20501;45.956;13.632;2024-03-06T10:52:35;1.50;;;1.40;;
34236;SDS011;20501;45.956;13.632;2024-03-06T10:55:02;3.80;;;2.80;;
34236;SDS011;20501;45.956;13.632;2024-03-06T10:57:29;4.68;;;2.33;;
34236;SDS011;20501;45.956;13.632;2024-03-06T10:59:55;4.65;;;2.35;;
34236;SDS011;20501;45.956;13.632;2024-03-06T11:02:24;3.53;;;1.90;;
34236;SDS011;20501;45.956;13.632;2024-03-06T11:04:50;4.03;;;1.30;;
34236;SDS011;20501;45.956;13.632;2024-03-06T11:09:42;2.55;;;1.42;;
34236;SDS011;20501;45.956;13.632;2024-03-06T11:12:07;4.35;;;2.17;;
34236;SDS011;20501;45.956;13.632;2024-03-06T11:14:36;4.90;;;2.22;;
34236;SDS011;20501;45.956;13.632;2024-03-06T11:17:04;3.70;;;2.70;;
34236;SDS011;20501;45.956;13.632;2024-03-06T11:19:33;7.30;;;3.25;;
34236;SDS011;20501;45.956;13.632;2024-03-06T11:28:11;10.00;;;5.75;;
34236;SDS011;20501;45.956;13.632;2024-03-06T11:31:06;7.07;;;5.28;;
34236;SDS011;20501;45.956;13.632;2024-03-06T11:38:42;4.35;;;1.40;;
34236;SDS011;20501;45.956;13.632;2024-03-06T11:41:11;1.92;;;1.20;;
34236;SDS011;20501;45.956;13.632;2024-03-06T11:43:41;1.83;;;1.13;;
34236;SDS011;20501;45.956;13.632;2024-03-06T11:46:08;4.55;;;1.23;;
34236;SDS011;20501;45.956;13.632;2024-03-06T11:48:35;2.30;;;1.17;;
34236;SDS011;20501;45.956;13.632;2024-03-06T11:51:01;4.50;;;1.48;;
34236;SDS011;20501;45.956;13.632;2024-03-06T11:53:30;3.63;;;0.93;;
34236;SDS011;20501;45.956;13.632;2024-03-06T11:55:58;1.38;;;0.98;;
34236;SDS011;20501;45.956;13.632;2024-03-06T11:58:24;1.90;;;1.30;;
34236;SDS011;20501;45.956;13.632;2024-03-06T12:00:50;1.75;;;1.30;;
34236;SDS011;20501;45.956;13.632;2024-03-06T12:03:18;4.45;;;1.67;;
34236;SDS011;20501;45.956;13.632;2024-03-06T12:05:44;3.72;;;1.95;;
34236;SDS011;20501;45.956;13.632;2024-03-06T12:08:11;2.42;;;1.45;;
34236;SDS011;20501;45.956;13.632;2024-03-06T12:10:37;2.38;;;1.63;;
34236;SDS011;20501;45.956;13.632;2024-03-06T12:15:30;2.53;;;1.40;;
34236;SDS011;20501;45.956;13.632;2024-03-06T12:17:55;1.33;;;1.08;;
34236;SDS011;20501;45.956;13.632;2024-03-06T12:20:21;3.70;;;1.20;;
34236;SDS011;20501;45.956;13.632;2024-03-06T12:22:50;3.20;;;0.90;;
34236;SDS011;20501;45.956;13.632;2024-03-06T12:25:20;1.33;;;0.82;;
34236;SDS011;20501;45.956;13.632;2024-03-06T12:27:46;1.48;;;0.88;;
34236;SDS011;20501;45.956;13.632;2024-03-06T12:30:12;5.53;;;0.90;;
34236;SDS011;20501;45.956;13.632;2024-03-06T12:32:41;2.33;;;1.27;;
34236;SDS011;20501;45.956;13.632;2024-03-06T12:35:07;2.30;;;1.13;;
34236;SDS011;20501;45.956;13.632;2024-03-06T12:37:32;1.40;;;0.90;;
34236;SDS011;20501;45.956;13.632;2024-03-06T12:39:58;1.63;;;0.95;;
34236;SDS011;20501;45.956;13.632;2024-03-06T12:42:23;3.38;;;1.35;;
34236;SDS011;20501;45.956;13.632;2024-03-06T12:44:52;1.35;;;1.00;;
34236;SDS011;20501;45.956;13.632;2024-03-06T12:47:18;2.38;;;1.10;;
34236;SDS011;20501;45.956;13.632;2024-03-06T12:49:43;3.92;;;1.27;;
34236;SDS011;20501;45.956;13.632;2024-03-06T12:52:09;3.60;;;1.35;;
34236;SDS011;20501;45.956;13.632;2024-03-06T12:54:34;3.22;;;1.30;;
34236;SDS011;20501;45.956;13.632;2024-03-06T12:57:00;2.88;;;1.15;;
34236;SDS011;20501;45.956;13.632;2024-03-06T12:59:25;7.47;;;3.97;;
34236;SDS011;20501;45.956;13.632;2024-03-06T13:01:51;4.40;;;1.30;;
34236;SDS011;20501;45.956;13.632;2024-03-06T13:04:16;3.58;;;1.20;;
34236;SDS011;20501;45.956;13.632;2024-03-06T13:06:42;3.85;;;1.77;;
34236;SDS011;20501;45.956;13.632;2024-03-06T13:09:07;3.40;;;1.95;;
34236;SDS011;20501;45.956;13.632;2024-03-06T13:11:32;3.80;;;1.73;;
34236;SDS011;20501;45.956;13.632;2024-03-06T13:13:58;2.03;;;1.52;;
34236;SDS011;20501;45.956;13.632;2024-03-06T13:16:25;5.25;;;2.10;;
34236;SDS011;20501;45.956;13.632;2024-03-06T13:18:51;5.32;;;2.03;;
34236;SDS011;20501;45.956;13.632;2024-03-06T13:21:19;1.65;;;1.13;;
34236;SDS011;20501;45.956;13.632;2024-03-06T13:23:44;4.10;;;1.25;;
34236;SDS011;20501;45.956;13.632;2024-03-06T13:26:10;1.15;;;1.05;;
34236;SDS011;20501;45.956;13.632;2024-03-06T13:28:35;2.22;;;1.05;;
34236;SDS011;20501;45.956;13.632;2024-03-06T13:31:01;5.05;;;1.40;;
34236;SDS011;20501;45.956;13.632;2024-03-06T13:33:26;1.35;;;0.95;;
34236;SDS011;20501;45.956;13.632;2024-03-06T13:35:53;2.33;;;1.30;;
34236;SDS011;20501;45.956;13.632;2024-03-06T13:38:19;5.87;;;1.50;;
34236;SDS011;20501;45.956;13.632;2024-03-06T13:40:44;4.22;;;1.10;;
34236;SDS011;20501;45.956;13.632;2024-03-06T13:43:10;0.70;;;0.70;;
34236;SDS011;20501;45.956;13.632;2024-03-06T13:45:35;0.60;;;0.60;;
34236;SDS011;20501;45.956;13.632;2024-03-06T13:48:02;1.15;;;0.60;;
34236;SDS011;20501;45.956;13.632;2024-03-06T13:52:54;2.65;;;1.00;;
34236;SDS011;20501;45.956;13.632;2024-03-06T13:55:20;1.42;;;0.80;;
34236;SDS011;20501;45.956;13.632;2024-03-06T13:57:45;8.38;;;1.40;;
34236;SDS011;20501;45.956;13.632;2024-03-06T14:00:12;2.15;;;0.90;;
34236;SDS011;20501;45.956;13.632;2024-03-06T14:02:42;1.45;;;0.68;;
34236;SDS011;20501;45.956;13.632;2024-03-06T14:05:08;1.33;;;0.77;;
34236;SDS011;20501;45.956;13.632;2024-03-06T14:07:33;0.98;;;0.70;;
34236;SDS011;20501;45.956;13.632;2024-03-06T14:09:59;1.57;;;0.70;;
34236;SDS011;20501;45.956;13.632;2024-03-06T14:12:25;10.88;;;0.90;;
34236;SDS011;20501;45.956;13.632;2024-03-06T14:14:50;1.50;;;0.75;;
34236;SDS011;20501;45.956;13.632;2024-03-06T14:17:16;0.93;;;0.70;;
34236;SDS011;20501;45.956;13.632;2024-03-06T14:19:41;1.83;;;0.90;;
34236;SDS011;20501;45.956;13.632;2024-03-06T14:22:07;1.75;;;0.82;;
34236;SDS011;20501;45.956;13.632;2024-03-06T14:24:33;5.22;;;1.15;;
34236;SDS011;20501;45.956;13.632;2024-03-06T14:26:58;2.90;;;1.20;;
34236;SDS011;20501;45.956;13.632;2024-03-06T14:29:24;3.33;;;1.10;;
34236;SDS011;20501;45.956;13.632;2024-03-06T14:31:51;5.65;;;1.25;;
34236;SDS011;20501;45.956;13.632;2024-03-06T14:34:17;3.22;;;1.15;;
34236;SDS011;20501;45.956;13.632;2024-03-06T14:36:42;2.92;;;1.30;;
34236;SDS011;20501;45.956;13.632;2024-03-06T14:39:08;2.65;;;0.80;;
34236;SDS011;20501;45.956;13.632;2024-03-06T14:41:35;2.92;;;1.00;;
34236;SDS011;20501;45.956;13.632;2024-03-06T14:44:01;5.70;;;1.10;;
34236;SDS011;20501;45.956;13.632;2024-03-06T14:46:27;5.32;;;1.05;;